sensor_id;sensor_type;location;lat;lon;timestamp;P1;durP1;ratioP1;P2;durP2;ratioP2
24813;SDS011;12904;50.088;11.414;2024-03-06T00:02:05;11.13;;;8.88;;
24813;SDS011;12904;50.088;11.414;2024-03-06T00:04:31;14.63;;;9.68;;
24813;SDS011;12904;50.088;11.414;2024-03-06T00:06:57;13.63;;;9.88;;
24813;SDS011;12904;50.088;11.414;2024-03-06T00:09:23;13.57;;;10.15;;
24813;SDS011;12904;50.088;11.414;2024-03-06T00:11:49;18.58;;;9.73;;
24813;SDS011;12904;50.088;11.414;2024-03-06T00:14:17;12.95;;;9.35;;
24813;SDS011;12904;50.088;11.414;2024-03-06T00:16:43;18.17;;;11.18;;
24813;SDS011;12904;50.088;11.414;2024-03-06T00:19:09;17.10;;;11.20;;
24813;SDS011;12904;50.088;11.414;2024-03-06T00:21:35;21.00;;;12.15;;
24813;SDS011;12904;50.088;11.414;2024-03-06T00:24:03;22.27;;;12.60;;
24813;SDS011;12904;50.088;11.414;2024-03-06T00:26:29;25.15;;;13.45;;
24813;SDS011;12904;50.088;11.414;2024-03-06T00:28:55;23.25;;;13.65;;
24813;SDS011;12904;50.088;11.414;2024-03-06T00:31:20;33.90;;;17.15;;
24813;SDS011;12904;50.088;11.414;2024-03-06T00:33:46;30.42;;;17.35;;
24813;SDS011;12904;50.088;11.414;2024-03-06T00:36:12;31.55;;;17.02;;
24813;SDS011;12904;50.088;11.414;2024-03-06T00:38:37;23.42;;;14.25;;
24813;SDS011;12904;50.088;11.414;2024-03-06T00:41:03;28.73;;;13.75;;
24813;SDS011;12904;50.088;11.414;2024-03-06T00:43:29;30.90;;;15.40;;
24813;SDS011;12904;50.088;11.414;2024-03-06T00:45:54;16.55;;;10.43;;
24813;SDS011;12904;50.088;11.414;2024-03-06T00:48:21;18.10;;;9.90;;
24813;SDS011;12904;50.088;11.414;2024-03-06T00:50:46;16.00;;;8.98;;
24813;SDS011;12904;50.088;11.414;2024-03-06T00:53:12;15.95;;;9.75;;
24813;SDS011;12904;50.088;11.414;2024-03-06T00:55:38;16.17;;;9.10;;
24813;SDS011;12904;50.088;11.414;2024-03-06T00:58:05;11.55;;;8.68;;
24813;SDS011;12904;50.088;11.414;2024-03-06T01:00:32;12.63;;;9.20;;
24813;SDS011;12904;50.088;11.414;2024-03-06T01:02:57;15.10;;;9.48;;
24813;SDS011;12904;50.088;11.414;2024-03-06T01:05:23;15.02;;;9.27;;
24813;SDS011;12904;50.088;11.414;2024-03-06T01:07:49;15.13;;;10.00;;
24813;SDS011;12904;50.088;11.414;2024-03-06T01:10:15;12.90;;;9.73;;
24813;SDS011;12904;50.088;11.414;2024-03-06T01:12:40;15.82;;;9.40;;
24813;SDS011;12904;50.088;11.414;2024-03-06T01:15:09;18.95;;;9.82;;
24813;SDS011;12904;50.088;11.414;2024-03-06T01:17:35;14.63;;;9.20;;
24813;SDS011;12904;50.088;11.414;2024-03-06T01:20:00;13.63;;;10.00;;
24813;SDS011;12904;50.088;11.414;2024-03-06T01:22:27;16.65;;;9.65;;
24813;SDS011;12904;50.088;11.414;2024-03-06T01:24:53;14.10;;;9.75;;
24813;SDS011;12904;50.088;11.414;2024-03-06T01:27:19;16.38;;;10.45;;
24813;SDS011;12904;50.088;11.414;2024-03-06T01:29:44;19.52;;;10.18;;
24813;SDS011;12904;50.088;11.414;2024-03-06T01:32:10;17.33;;;11.00;;
24813;SDS011;12904;50.088;11.414;2024-03-06T01:34:35;17.23;;;11.85;;
24813;SDS011;12904;50.088;11.414;2024-03-06T01:37:02;22.00;;;12.40;;
24813;SDS011;12904;50.088;11.414;2024-03-06T01:39:28;17.92;;;10.68;;
24813;SDS011;12904;50.088;11.414;2024-03-06T01:41:53;18.13;;;10.77;;
24813;SDS011;12904;50.088;11.414;2024-03-06T01:44:19;23.10;;;11.80;;
24813;SDS011;12904;50.088;11.414;2024-03-06T01:46:45;18.98;;;12.88;;
24813;SDS011;12904;50.088;11.414;2024-03-06T01:49:12;15.88;;;10.60;;
24813;SDS011;12904;50.088;11.414;2024-03-06T01:51:41;18.35;;;11.65;;
24813;SDS011;12904;50.088;11.414;2024-03-06T01:54:10;22.65;;;11.07;;
24813;SDS011;12904;50.088;11.414;2024-03-06T01:56:36;21.60;;;10.95;;
24813;SDS011;12904;50.088;11.414;2024-03-06T01:59:06;19.77;;;11.45;;
24813;SDS011;12904;50.088;11.414;2024-03-06T02:01:32;19.25;;;11.85;;
24813;SDS011;12904;50.088;11.414;2024-03-06T02:03:58;20.40;;;10.95;;
24813;SDS011;12904;50.088;11.414;2024-03-06T02:06:25;16.13;;;10.15;;
24813;SDS011;12904;50.088;11.414;2024-03-06T02:08:51;16.38;;;11.75;;
24813;SDS011;12904;50.088;11.414;2024-03-06T02:11:16;20.45;;;10.18;;
24813;SDS011;12904;50.088;11.414;2024-03-06T02:13:42;15.27;;;10.10;;
24813;SDS011;12904;50.088;11.414;2024-03-06T02:16:09;12.35;;;8.50;;
24813;SDS011;12904;50.088;11.414;2024-03-06T02:18:35;19.05;;;10.48;;
24813;SDS011;12904;50.088;11.414;2024-03-06T02:21:02;17.95;;;9.73;;
24813;SDS011;12904;50.088;11.414;2024-03-06T02:23:29;11.50;;;9.15;;
24813;SDS011;12904;50.088;11.414;2024-03-06T02:25:55;14.77;;;9.82;;
24813;SDS011;12904;50.088;11.414;2024-03-06T02:28:21;16.40;;;10.35;;
24813;SDS011;12904;50.088;11.414;2024-03-06T02:30:50;12.23;;;7.82;;
24813;SDS011;12904;50.088;11.414;2024-03-06T02:33:16;15.15;;;9.65;;
24813;SDS011;12904;50.088;11.414;2024-03-06T02:35:43;16.42;;;10.85;;
24813;SDS011;12904;50.088;11.414;2024-03-06T02:38:10;15.38;;;9.60;;
24813;SDS011;12904;50.088;11.414;2024-03-06T02:40:35;15.48;;;11.27;;
24813;SDS011;12904;50.088;11.414;2024-03-06T02:43:01;19.10;;;10.35;;
24813;SDS011;12904;50.088;11.414;2024-03-06T02:45:27;22.00;;;12.88;;
24813;SDS011;12904;50.088;11.414;2024-03-06T02:47:53;20.58;;;10.63;;
24813;SDS011;12904;50.088;11.414;2024-03-06T02:50:19;21.77;;;11.20;;
24813;SDS011;12904;50.088;11.414;2024-03-06T02:52:46;15.60;;;10.57;;
24813;SDS011;12904;50.088;11.414;2024-03-06T02:55:11;14.38;;;10.93;;
24813;SDS011;12904;50.088;11.414;2024-03-06T02:57:37;20.27;;;11.00;;
24813;SDS011;12904;50.088;11.414;2024-03-06T03:00:03;16.33;;;10.45;;
24813;SDS011;12904;50.088;11.414;2024-03-06T03:02:29;18.80;;;12.00;;
24813;SDS011;12904;50.088;11.414;2024-03-06T03:04:56;21.45;;;11.65;;
24813;SDS011;12904;50.088;11.414;2024-03-06T03:07:21;22.92;;;12.27;;
24813;SDS011;12904;50.088;11.414;2024-03-06T03:09:48;17.45;;;10.65;;
24813;SDS011;12904;50.088;11.414;2024-03-06T03:12:14;21.50;;;12.35;;
24813;SDS011;12904;50.088;11.414;2024-03-06T03:14:40;19.67;;;11.50;;
24813;SDS011;12904;50.088;11.414;2024-03-06T03:17:06;20.95;;;11.90;;
24813;SDS011;12904;50.088;11.414;2024-03-06T03:19:32;16.08;;;10.18;;
24813;SDS011;12904;50.088;11.414;2024-03-06T03:21:57;19.38;;;11.75;;
24813;SDS011;12904;50.088;11.414;2024-03-06T03:24:24;16.60;;;10.50;;
24813;SDS011;12904;50.088;11.414;2024-03-06T03:26:52;17.13;;;10.95;;
24813;SDS011;12904;50.088;11.414;2024-03-06T03:29:18;21.77;;;11.20;;
24813;SDS011;12904;50.088;11.414;2024-03-06T03:31:43;23.77;;;11.50;;
24813;SDS011;12904;50.088;11.414;2024-03-06T03:34:09;18.38;;;10.27;;
24813;SDS011;12904;50.088;11.414;2024-03-06T03:36:39;17.42;;;10.07;;
24813;SDS011;12904;50.088;11.414;2024-03-06T03:39:11;18.10;;;11.23;;
24813;SDS011;12904;50.088;11.414;2024-03-06T03:41:45;16.45;;;10.95;;
24813;SDS011;12904;50.088;11.414;2024-03-06T03:44:15;15.48;;;10.50;;
24813;SDS011;12904;50.088;11.414;2024-03-06T03:46:42;15.47;;;8.50;;
24813;SDS011;12904;50.088;11.414;2024-03-06T03:49:08;14.50;;;9.85;;
24813;SDS011;12904;50.088;11.414;2024-03-06T03:51:35;12.30;;;9.32;;
24813;SDS011;12904;50.088;11.414;2024-03-06T03:54:02;15.20;;;9.52;;
24813;SDS011;12904;50.088;11.414;2024-03-06T03:56:27;17.95;;;10.52;;
24813;SDS011;12904;50.088;11.414;2024-03-06T03:58:53;16.00;;;9.27;;
24813;SDS011;12904;50.088;11.414;2024-03-06T04:01:19;19.10;;;10.57;;
24813;SDS011;12904;50.088;11.414;2024-03-06T04:03:44;14.07;;;9.60;;
24813;SDS011;12904;50.088;11.414;2024-03-06T04:06:10;16.45;;;8.52;;
24813;SDS011;12904;50.088;11.414;2024-03-06T04:08:36;18.92;;;11.23;;
24813;SDS011;12904;50.088;11.414;2024-03-06T04:11:03;16.45;;;9.68;;
24813;SDS011;12904;50.088;11.414;2024-03-06T04:13:29;23.95;;;17.17;;
24813;SDS011;12904;50.088;11.414;2024-03-06T04:15:54;20.00;;;12.65;;
24813;SDS011;12904;50.088;11.414;2024-03-06T04:18:20;17.35;;;11.48;;
24813;SDS011;12904;50.088;11.414;2024-03-06T04:20:46;14.82;;;10.65;;
24813;SDS011;12904;50.088;11.414;2024-03-06T04:23:12;21.02;;;12.13;;
24813;SDS011;12904;50.088;11.414;2024-03-06T04:25:37;23.38;;;12.40;;
24813;SDS011;12904;50.088;11.414;2024-03-06T04:28:04;23.15;;;12.35;;
24813;SDS011;12904;50.088;11.414;2024-03-06T04:30:32;29.25;;;13.77;;
24813;SDS011;12904;50.088;11.414;2024-03-06T04:32:58;21.90;;;13.15;;
24813;SDS011;12904;50.088;11.414;2024-03-06T04:35:24;24.67;;;12.85;;
24813;SDS011;12904;50.088;11.414;2024-03-06T04:37:50;21.30;;;12.25;;
24813;SDS011;12904;50.088;11.414;2024-03-06T04:40:16;18.83;;;11.10;;
24813;SDS011;12904;50.088;11.414;2024-03-06T04:42:48;21.77;;;11.13;;
24813;SDS011;12904;50.088;11.414;2024-03-06T04:45:14;17.25;;;11.35;;
24813;SDS011;12904;50.088;11.414;2024-03-06T04:47:41;24.27;;;14.68;;
24813;SDS011;12904;50.088;11.414;2024-03-06T04:50:10;26.02;;;14.20;;
24813;SDS011;12904;50.088;11.414;2024-03-06T04:52:37;19.08;;;12.07;;
24813;SDS011;12904;50.088;11.414;2024-03-06T04:55:03;20.25;;;12.25;;
24813;SDS011;12904;50.088;11.414;2024-03-06T04:57:29;20.08;;;12.20;;
24813;SDS011;12904;50.088;11.414;2024-03-06T04:59:55;23.63;;;12.43;;
24813;SDS011;12904;50.088;11.414;2024-03-06T05:02:23;27.58;;;15.20;;
24813;SDS011;12904;50.088;11.414;2024-03-06T05:04:50;20.25;;;12.68;;
24813;SDS011;12904;50.088;11.414;2024-03-06T05:07:16;25.52;;;13.80;;
24813;SDS011;12904;50.088;11.414;2024-03-06T05:09:41;27.75;;;15.38;;
24813;SDS011;12904;50.088;11.414;2024-03-06T05:12:07;26.17;;;14.23;;
24813;SDS011;12904;50.088;11.414;2024-03-06T05:14:33;27.20;;;14.43;;
24813;SDS011;12904;50.088;11.414;2024-03-06T05:16:59;26.90;;;13.70;;
24813;SDS011;12904;50.088;11.414;2024-03-06T05:19:24;21.75;;;13.60;;
24813;SDS011;12904;50.088;11.414;2024-03-06T05:21:57;24.90;;;11.50;;
24813;SDS011;12904;50.088;11.414;2024-03-06T05:24:24;20.13;;;12.10;;
24813;SDS011;12904;50.088;11.414;2024-03-06T05:26:49;28.45;;;13.60;;
24813;SDS011;12904;50.088;11.414;2024-03-06T05:29:15;22.80;;;12.65;;
24813;SDS011;12904;50.088;11.414;2024-03-06T05:31:41;19.02;;;11.57;;
24813;SDS011;12904;50.088;11.414;2024-03-06T05:34:07;25.35;;;12.77;;
24813;SDS011;12904;50.088;11.414;2024-03-06T05:36:33;23.95;;;13.52;;
24813;SDS011;12904;50.088;11.414;2024-03-06T05:38:58;25.50;;;12.70;;
24813;SDS011;12904;50.088;11.414;2024-03-06T05:41:24;27.25;;;13.00;;
24813;SDS011;12904;50.088;11.414;2024-03-06T05:43:49;57.05;;;24.67;;
24813;SDS011;12904;50.088;11.414;2024-03-06T05:46:15;64.38;;;28.92;;
24813;SDS011;12904;50.088;11.414;2024-03-06T05:48:41;44.15;;;25.17;;
24813;SDS011;12904;50.088;11.414;2024-03-06T05:51:07;23.33;;;13.57;;
24813;SDS011;12904;50.088;11.414;2024-03-06T05:53:36;33.40;;;16.95;;
24813;SDS011;12904;50.088;11.414;2024-03-06T05:56:04;35.80;;;15.77;;
24813;SDS011;12904;50.088;11.414;2024-03-06T05:58:31;39.90;;;16.90;;
24813;SDS011;12904;50.088;11.414;2024-03-06T06:00:56;34.40;;;16.65;;
24813;SDS011;12904;50.088;11.414;2024-03-06T06:03:22;34.55;;;15.07;;
24813;SDS011;12904;50.088;11.414;2024-03-06T06:05:47;34.38;;;15.95;;
24813;SDS011;12904;50.088;11.414;2024-03-06T06:08:13;32.20;;;15.90;;
24813;SDS011;12904;50.088;11.414;2024-03-06T06:10:39;36.20;;;17.15;;
24813;SDS011;12904;50.088;11.414;2024-03-06T06:13:04;37.30;;;17.02;;
24813;SDS011;12904;50.088;11.414;2024-03-06T06:15:30;33.40;;;17.38;;
24813;SDS011;12904;50.088;11.414;2024-03-06T06:17:55;39.03;;;15.95;;
24813;SDS011;12904;50.088;11.414;2024-03-06T06:20:21;35.00;;;18.10;;
24813;SDS011;12904;50.088;11.414;2024-03-06T06:22:47;39.03;;;17.55;;
24813;SDS011;12904;50.088;11.414;2024-03-06T06:25:12;43.58;;;19.45;;
24813;SDS011;12904;50.088;11.414;2024-03-06T06:27:40;40.78;;;19.70;;
24813;SDS011;12904;50.088;11.414;2024-03-06T06:30:06;45.25;;;18.70;;
24813;SDS011;12904;50.088;11.414;2024-03-06T06:32:36;44.07;;;19.00;;
24813;SDS011;12904;50.088;11.414;2024-03-06T06:35:02;42.38;;;19.30;;
24813;SDS011;12904;50.088;11.414;2024-03-06T06:37:29;35.35;;;17.60;;
24813;SDS011;12904;50.088;11.414;2024-03-06T06:39:57;38.60;;;19.30;;
24813;SDS011;12904;50.088;11.414;2024-03-06T06:42:24;43.33;;;20.95;;
24813;SDS011;12904;50.088;11.414;2024-03-06T06:44:50;37.58;;;19.00;;
24813;SDS011;12904;50.088;11.414;2024-03-06T06:47:16;41.10;;;19.80;;
24813;SDS011;12904;50.088;11.414;2024-03-06T06:49:42;42.78;;;18.52;;
24813;SDS011;12904;50.088;11.414;2024-03-06T06:52:07;38.03;;;19.48;;
24813;SDS011;12904;50.088;11.414;2024-03-06T06:54:33;34.75;;;18.15;;
24813;SDS011;12904;50.088;11.414;2024-03-06T06:56:59;39.25;;;19.58;;
24813;SDS011;12904;50.088;11.414;2024-03-06T06:59:24;37.40;;;18.17;;
24813;SDS011;12904;50.088;11.414;2024-03-06T07:01:50;38.33;;;19.67;;
24813;SDS011;12904;50.088;11.414;2024-03-06T07:04:15;47.33;;;21.83;;
24813;SDS011;12904;50.088;11.414;2024-03-06T07:06:44;42.00;;;19.42;;
24813;SDS011;12904;50.088;11.414;2024-03-06T07:09:11;40.65;;;20.38;;
24813;SDS011;12904;50.088;11.414;2024-03-06T07:11:37;37.85;;;19.45;;
24813;SDS011;12904;50.088;11.414;2024-03-06T07:14:03;49.88;;;23.38;;
24813;SDS011;12904;50.088;11.414;2024-03-06T07:16:28;47.08;;;21.50;;
24813;SDS011;12904;50.088;11.414;2024-03-06T07:18:54;34.53;;;19.45;;
24813;SDS011;12904;50.088;11.414;2024-03-06T07:21:19;41.70;;;20.02;;
24813;SDS011;12904;50.088;11.414;2024-03-06T07:23:45;37.53;;;18.63;;
24813;SDS011;12904;50.088;11.414;2024-03-06T07:26:11;35.88;;;20.08;;
24813;SDS011;12904;50.088;11.414;2024-03-06T07:28:36;31.20;;;18.20;;
24813;SDS011;12904;50.088;11.414;2024-03-06T07:31:02;29.33;;;17.92;;
24813;SDS011;12904;50.088;11.414;2024-03-06T07:33:28;34.65;;;18.00;;
24813;SDS011;12904;50.088;11.414;2024-03-06T07:35:55;28.55;;;16.60;;
24813;SDS011;12904;50.088;11.414;2024-03-06T07:38:21;28.58;;;16.60;;
24813;SDS011;12904;50.088;11.414;2024-03-06T07:40:48;29.52;;;17.67;;
24813;SDS011;12904;50.088;11.414;2024-03-06T07:43:13;31.02;;;18.40;;
24813;SDS011;12904;50.088;11.414;2024-03-06T07:45:39;27.90;;;17.38;;
24813;SDS011;12904;50.088;11.414;2024-03-06T07:48:06;25.75;;;16.15;;
24813;SDS011;12904;50.088;11.414;2024-03-06T07:50:31;25.42;;;16.98;;
24813;SDS011;12904;50.088;11.414;2024-03-06T07:52:57;27.13;;;16.13;;
24813;SDS011;12904;50.088;11.414;2024-03-06T07:55:22;27.95;;;16.30;;
24813;SDS011;12904;50.088;11.414;2024-03-06T07:57:48;29.15;;;15.93;;
24813;SDS011;12904;50.088;11.414;2024-03-06T08:00:14;23.17;;;15.85;;
24813;SDS011;12904;50.088;11.414;2024-03-06T08:02:43;29.52;;;15.90;;
24813;SDS011;12904;50.088;11.414;2024-03-06T08:05:11;24.67;;;14.88;;
24813;SDS011;12904;50.088;11.414;2024-03-06T08:07:40;23.40;;;14.00;;
24813;SDS011;12904;50.088;11.414;2024-03-06T08:10:10;22.92;;;14.80;;
24813;SDS011;12904;50.088;11.414;2024-03-06T08:12:40;23.80;;;15.75;;
24813;SDS011;12904;50.088;11.414;2024-03-06T08:15:07;24.20;;;13.88;;
24813;SDS011;12904;50.088;11.414;2024-03-06T08:17:35;19.10;;;13.07;;
24813;SDS011;12904;50.088;11.414;2024-03-06T08:20:01;21.65;;;13.43;;
24813;SDS011;12904;50.088;11.414;2024-03-06T08:22:32;23.52;;;13.43;;
24813;SDS011;12904;50.088;11.414;2024-03-06T08:25:08;19.67;;;12.30;;
24813;SDS011;12904;50.088;11.414;2024-03-06T08:27:35;20.67;;;13.75;;
24813;SDS011;12904;50.088;11.414;2024-03-06T08:30:02;21.27;;;12.35;;
24813;SDS011;12904;50.088;11.414;2024-03-06T08:32:32;15.73;;;11.25;;
24813;SDS011;12904;50.088;11.414;2024-03-06T08:35:00;26.83;;;13.68;;
24813;SDS011;12904;50.088;11.414;2024-03-06T08:37:32;19.42;;;13.40;;
24813;SDS011;12904;50.088;11.414;2024-03-06T08:39:59;16.15;;;10.90;;
24813;SDS011;12904;50.088;11.414;2024-03-06T08:42:25;19.33;;;11.88;;
24813;SDS011;12904;50.088;11.414;2024-03-06T08:44:50;18.50;;;11.00;;
24813;SDS011;12904;50.088;11.414;2024-03-06T08:47:16;16.15;;;12.00;;
24813;SDS011;12904;50.088;11.414;2024-03-06T08:49:42;14.75;;;11.02;;
24813;SDS011;12904;50.088;11.414;2024-03-06T08:52:07;21.95;;;11.45;;
24813;SDS011;12904;50.088;11.414;2024-03-06T08:54:34;18.63;;;10.30;;
24813;SDS011;12904;50.088;11.414;2024-03-06T08:57:00;16.20;;;10.07;;
24813;SDS011;12904;50.088;11.414;2024-03-06T08:59:28;14.15;;;10.10;;
24813;SDS011;12904;50.088;11.414;2024-03-06T09:01:54;16.17;;;10.15;;
24813;SDS011;12904;50.088;11.414;2024-03-06T09:04:21;14.90;;;10.15;;
24813;SDS011;12904;50.088;11.414;2024-03-06T09:06:47;16.08;;;10.02;;
24813;SDS011;12904;50.088;11.414;2024-03-06T09:09:14;16.23;;;9.63;;
24813;SDS011;12904;50.088;11.414;2024-03-06T09:11:43;11.85;;;9.20;;
24813;SDS011;12904;50.088;11.414;2024-03-06T09:14:09;13.32;;;8.98;;
24813;SDS011;12904;50.088;11.414;2024-03-06T09:16:35;10.65;;;8.52;;
24813;SDS011;12904;50.088;11.414;2024-03-06T09:19:01;11.55;;;7.38;;
24813;SDS011;12904;50.088;11.414;2024-03-06T09:21:27;11.88;;;8.57;;
24813;SDS011;12904;50.088;11.414;2024-03-06T09:23:53;12.93;;;8.50;;
24813;SDS011;12904;50.088;11.414;2024-03-06T09:26:19;11.15;;;8.52;;
24813;SDS011;12904;50.088;11.414;2024-03-06T09:28:47;11.63;;;8.50;;
24813;SDS011;12904;50.088;11.414;2024-03-06T09:31:14;13.20;;;8.57;;
24813;SDS011;12904;50.088;11.414;2024-03-06T09:33:40;11.07;;;8.20;;
24813;SDS011;12904;50.088;11.414;2024-03-06T09:36:06;9.80;;;7.20;;
24813;SDS011;12904;50.088;11.414;2024-03-06T09:38:32;11.23;;;7.43;;
24813;SDS011;12904;50.088;11.414;2024-03-06T09:40:57;12.48;;;7.57;;
24813;SDS011;12904;50.088;11.414;2024-03-06T09:43:23;11.35;;;7.53;;
24813;SDS011;12904;50.088;11.414;2024-03-06T09:45:50;14.73;;;7.55;;
24813;SDS011;12904;50.088;11.414;2024-03-06T09:48:16;12.02;;;7.35;;
24813;SDS011;12904;50.088;11.414;2024-03-06T09:50:45;9.10;;;7.35;;
24813;SDS011;12904;50.088;11.414;2024-03-06T09:53:15;10.10;;;7.55;;
24813;SDS011;12904;50.088;11.414;2024-03-06T09:55:41;12.23;;;7.82;;
24813;SDS011;12904;50.088;11.414;2024-03-06T09:58:07;10.07;;;6.63;;
24813;SDS011;12904;50.088;11.414;2024-03-06T10:00:34;11.00;;;7.88;;
24813;SDS011;12904;50.088;11.414;2024-03-06T10:03:01;10.13;;;7.85;;
24813;SDS011;12904;50.088;11.414;2024-03-06T10:05:33;10.55;;;7.53;;
24813;SDS011;12904;50.088;11.414;2024-03-06T10:08:00;9.48;;;7.10;;
24813;SDS011;12904;50.088;11.414;2024-03-06T10:10:26;10.80;;;7.93;;
24813;SDS011;12904;50.088;11.414;2024-03-06T10:12:52;10.10;;;7.30;;
24813;SDS011;12904;50.088;11.414;2024-03-06T10:15:18;12.15;;;8.32;;
24813;SDS011;12904;50.088;11.414;2024-03-06T10:17:44;10.82;;;7.25;;
24813;SDS011;12904;50.088;11.414;2024-03-06T10:20:23;10.40;;;7.97;;
24813;SDS011;12904;50.088;11.414;2024-03-06T10:22:52;10.40;;;7.68;;
24813;SDS011;12904;50.088;11.414;2024-03-06T10:25:22;11.77;;;7.70;;
24813;SDS011;12904;50.088;11.414;2024-03-06T10:30:37;11.32;;;8.50;;
24813;SDS011;12904;50.088;11.414;2024-03-06T10:33:07;15.43;;;9.85;;
24813;SDS011;12904;50.088;11.414;2024-03-06T10:35:34;13.20;;;9.02;;
24813;SDS011;12904;50.088;11.414;2024-03-06T10:38:02;10.57;;;8.52;;
24813;SDS011;12904;50.088;11.414;2024-03-06T10:40:32;13.38;;;9.10;;
24813;SDS011;12904;50.088;11.414;2024-03-06T10:43:03;14.45;;;8.98;;
24813;SDS011;12904;50.088;11.414;2024-03-06T10:45:50;12.43;;;9.18;;
24813;SDS011;12904;50.088;11.414;2024-03-06T10:48:17;16.35;;;11.00;;
24813;SDS011;12904;50.088;11.414;2024-03-06T10:50:44;11.35;;;8.30;;
24813;SDS011;12904;50.088;11.414;2024-03-06T10:53:11;13.30;;;10.27;;
24813;SDS011;12904;50.088;11.414;2024-03-06T10:55:39;13.52;;;10.38;;
24813;SDS011;12904;50.088;11.414;2024-03-06T10:58:09;10.52;;;7.40;;
24813;SDS011;12904;50.088;11.414;2024-03-06T11:00:42;9.85;;;7.90;;
24813;SDS011;12904;50.088;11.414;2024-03-06T11:03:11;10.27;;;8.20;;
24813;SDS011;12904;50.088;11.414;2024-03-06T11:05:40;12.57;;;8.73;;
24813;SDS011;12904;50.088;11.414;2024-03-06T11:10:36;12.35;;;9.40;;
24813;SDS011;12904;50.088;11.414;2024-03-06T11:15:48;13.52;;;10.40;;
24813;SDS011;12904;50.088;11.414;2024-03-06T11:24:11;15.65;;;10.68;;
24813;SDS011;12904;50.088;11.414;2024-03-06T11:26:57;15.18;;;10.52;;
24813;SDS011;12904;50.088;11.414;2024-03-06T11:29:29;14.88;;;11.13;;
24813;SDS011;12904;50.088;11.414;2024-03-06T11:32:16;20.52;;;11.95;;
24813;SDS011;12904;50.088;11.414;2024-03-06T11:34:42;13.65;;;10.23;;
24813;SDS011;12904;50.088;11.414;2024-03-06T11:37:08;15.20;;;10.20;;
24813;SDS011;12904;50.088;11.414;2024-03-06T11:39:37;14.15;;;10.60;;
24813;SDS011;12904;50.088;11.414;2024-03-06T11:42:04;12.90;;;9.27;;
24813;SDS011;12904;50.088;11.414;2024-03-06T11:44:33;16.13;;;9.70;;
24813;SDS011;12904;50.088;11.414;2024-03-06T11:47:03;11.57;;;8.75;;
24813;SDS011;12904;50.088;11.414;2024-03-06T11:49:31;10.70;;;8.50;;
24813;SDS011;12904;50.088;11.414;2024-03-06T11:52:02;14.15;;;10.73;;
24813;SDS011;12904;50.088;11.414;2024-03-06T11:54:35;11.70;;;9.43;;
24813;SDS011;12904;50.088;11.414;2024-03-06T11:57:02;10.45;;;9.35;;
24813;SDS011;12904;50.088;11.414;2024-03-06T11:59:32;14.30;;;9.02;;
24813;SDS011;12904;50.088;11.414;2024-03-06T12:02:03;12.55;;;10.15;;
24813;SDS011;12904;50.088;11.414;2024-03-06T12:04:30;12.43;;;8.80;;
24813;SDS011;12904;50.088;11.414;2024-03-06T12:06:58;13.27;;;10.00;;
24813;SDS011;12904;50.088;11.414;2024-03-06T12:09:25;13.00;;;9.45;;
24813;SDS011;12904;50.088;11.414;2024-03-06T12:11:51;14.48;;;10.35;;
24813;SDS011;12904;50.088;11.414;2024-03-06T12:14:18;11.95;;;9.50;;
24813;SDS011;12904;50.088;11.414;2024-03-06T12:16:54;14.63;;;10.10;;
24813;SDS011;12904;50.088;11.414;2024-03-06T12:19:21;13.00;;;9.27;;
24813;SDS011;12904;50.088;11.414;2024-03-06T12:21:47;12.15;;;9.35;;
24813;SDS011;12904;50.088;11.414;2024-03-06T12:24:15;11.57;;;8.55;;
24813;SDS011;12904;50.088;11.414;2024-03-06T12:26:44;13.90;;;9.68;;
24813;SDS011;12904;50.088;11.414;2024-03-06T12:29:10;11.48;;;9.23;;
24813;SDS011;12904;50.088;11.414;2024-03-06T12:31:41;11.73;;;8.68;;
24813;SDS011;12904;50.088;11.414;2024-03-06T12:34:07;11.07;;;8.82;;
24813;SDS011;12904;50.088;11.414;2024-03-06T12:36:38;12.52;;;9.20;;
24813;SDS011;12904;50.088;11.414;2024-03-06T12:39:03;11.02;;;9.18;;
24813;SDS011;12904;50.088;11.414;2024-03-06T12:41:37;11.02;;;8.88;;
24813;SDS011;12904;50.088;11.414;2024-03-06T12:44:06;13.55;;;10.88;;
24813;SDS011;12904;50.088;11.414;2024-03-06T12:46:32;12.30;;;9.52;;
24813;SDS011;12904;50.088;11.414;2024-03-06T12:48:58;12.60;;;9.27;;
24813;SDS011;12904;50.088;11.414;2024-03-06T12:51:23;11.65;;;8.35;;
24813;SDS011;12904;50.088;11.414;2024-03-06T12:53:49;17.55;;;11.57;;
24813;SDS011;12904;50.088;11.414;2024-03-06T12:56:16;17.58;;;10.13;;
24813;SDS011;12904;50.088;11.414;2024-03-06T12:58:42;13.05;;;11.05;;
24813;SDS011;12904;50.088;11.414;2024-03-06T13:01:08;19.13;;;12.00;;
24813;SDS011;12904;50.088;11.414;2024-03-06T13:03:33;14.15;;;10.40;;
24813;SDS011;12904;50.088;11.414;2024-03-06T13:05:59;16.75;;;10.45;;
24813;SDS011;12904;50.088;11.414;2024-03-06T13:08:25;17.23;;;10.18;;
24813;SDS011;12904;50.088;11.414;2024-03-06T13:13:44;16.05;;;11.02;;
24813;SDS011;12904;50.088;11.414;2024-03-06T13:16:10;14.68;;;10.02;;
24813;SDS011;12904;50.088;11.414;2024-03-06T13:18:36;17.38;;;10.25;;
24813;SDS011;12904;50.088;11.414;2024-03-06T13:21:02;15.88;;;10.13;;
24813;SDS011;12904;50.088;11.414;2024-03-06T13:23:28;11.80;;;8.90;;
24813;SDS011;12904;50.088;11.414;2024-03-06T13:25:53;18.80;;;9.70;;
24813;SDS011;12904;50.088;11.414;2024-03-06T13:28:19;13.75;;;9.40;;
24813;SDS011;12904;50.088;11.414;2024-03-06T13:30:46;14.57;;;9.63;;
24813;SDS011;12904;50.088;11.414;2024-03-06T13:33:11;12.68;;;9.40;;
24813;SDS011;12904;50.088;11.414;2024-03-06T13:35:37;14.77;;;10.30;;
24813;SDS011;12904;50.088;11.414;2024-03-06T13:38:02;15.75;;;9.57;;
24813;SDS011;12904;50.088;11.414;2024-03-06T13:40:28;13.38;;;9.15;;
24813;SDS011;12904;50.088;11.414;2024-03-06T13:42:54;15.18;;;10.55;;
24813;SDS011;12904;50.088;11.414;2024-03-06T13:45:19;16.27;;;10.07;;
24813;SDS011;12904;50.088;11.414;2024-03-06T13:47:45;14.98;;;9.90;;
24813;SDS011;12904;50.088;11.414;2024-03-06T13:50:12;17.73;;;9.50;;
24813;SDS011;12904;50.088;11.414;2024-03-06T13:52:42;14.60;;;10.45;;
24813;SDS011;12904;50.088;11.414;2024-03-06T13:55:08;17.50;;;11.10;;
24813;SDS011;12904;50.088;11.414;2024-03-06T13:57:35;14.15;;;11.02;;
24813;SDS011;12904;50.088;11.414;2024-03-06T14:00:05;13.18;;;9.70;;
24813;SDS011;12904;50.088;11.414;2024-03-06T14:02:38;15.27;;;10.88;;
24813;SDS011;12904;50.088;11.414;2024-03-06T14:05:04;16.67;;;10.93;;
24813;SDS011;12904;50.088;11.414;2024-03-06T14:07:31;13.85;;;10.45;;
24813;SDS011;12904;50.088;11.414;2024-03-06T14:09:57;14.05;;;11.13;;
24813;SDS011;12904;50.088;11.414;2024-03-06T14:12:23;16.10;;;11.75;;
24813;SDS011;12904;50.088;11.414;2024-03-06T14:14:49;16.35;;;11.13;;
24813;SDS011;12904;50.088;11.414;2024-03-06T14:17:14;14.55;;;11.13;;
24813;SDS011;12904;50.088;11.414;2024-03-06T14:19:40;14.27;;;10.77;;
24813;SDS011;12904;50.088;11.414;2024-03-06T14:22:07;18.45;;;12.02;;
24813;SDS011;12904;50.088;11.414;2024-03-06T14:24:32;15.48;;;11.60;;
24813;SDS011;12904;50.088;11.414;2024-03-06T14:26:58;14.18;;;10.63;;
24813;SDS011;12904;50.088;11.414;2024-03-06T14:29:24;15.57;;;11.55;;